Time;durP1;ratioP1;P1;durP2;ratioP2;P2;SDS_P1;SDS_P2;PMS_P1;PMS_P2;Temp;Humidity;BMP_temperature;BMP_pressure;BME280_temperature;BME280_humidity;BME280_pressure;Samples;Min_cycle;Max_cycle;Signal;HPM_P1;HPM_P2
2020/12/19 00:01:45;;;;;;;;;;;;;;;;;;5001068;28;19992;-66
2020/12/19 00:04:12;;;;;;;;;;;;;;;;;;5002219;28;19925;-66
2020/12/19 00:06:38;;;;;;;;;;;;;;;;;;5003367;28;20016;-65
2020/12/19 00:09:05;;;;;;;;;;;;;;;;;;5011176;28;19931;-65
2020/12/19 00:11:31;;;;;;;;;;;;;;;;;;4996403;28;19939;-65
2020/12/19 00:13:58;;;;;;;;;;;;;;;;;;5004359;28;19933;-64
2020/12/19 00:16:29;;;;;;;;;;;;;;;;;;4995391;28;20024;-65
2020/12/19 00:18:55;;;;;;;;;;;;;;;;;;5013013;28;19932;-66
2020/12/19 00:21:22;;;;;;;;;;;;;;;;;;5009102;28;20004;-65
2020/12/19 00:23:48;;;;;;;;;;;;;;;;;;4993637;28;19925;-65
2020/12/19 00:26:15;;;;;;;;;;;;;;;;;;5001847;28;19925;-65
2020/12/19 00:28:41;;;;;;;;;;;;;;;;;;5012667;28;19960;-66
2020/12/19 00:31:08;;;;;;;;;;;;;;;;;;5003714;28;19926;-66
2020/12/19 00:33:34;;;;;;;;;;;;;;;;;;4993745;28;19932;-65
2020/12/19 00:36:01;;;;;;;;;;;;;;;;;;4994924;28;19930;-65
2020/12/19 00:38:27;;;;;;;;;;;;;;;;;;4993672;28;19926;-65
2020/12/19 00:40:54;;;;;;;;;;;;;;;;;;4999164;28;19926;-68
2020/12/19 00:43:20;;;;;;;;;;;;;;;;;;4996584;28;19933;-64
2020/12/19 00:45:47;;;;;;;;;;;;;;;;;;5008603;28;19925;-66
2020/12/19 00:48:13;;;;;;;;;;;;;;;;;;5013210;28;19926;-65
2020/12/19 00:50:40;;;;;;;;;;;;;;;;;;5010177;28;19998;-66
2020/12/19 00:53:06;;;;;;;;;;;;;;;;;;4995132;28;20024;-66
2020/12/19 00:55:33;;;;;;;;;;;;;;;;;;5012616;28;20024;-65
2020/12/19 00:57:59;;;;;;;;;;;;;;;;;;4996634;28;20326;-63
2020/12/19 01:00:26;;;;;;;;;;;;;;;;;;5003545;28;19926;-66
2020/12/19 01:02:52;;;;;;;;;;;;;;;;;;5001965;28;19948;-66
2020/12/19 01:05:18;;;;;;;;;;;;;;;;;;5005053;28;19932;-65
2020/12/19 01:07:45;;;;;;;;;;;;;;;;;;5009741;28;20409;-65
2020/12/19 01:10:11;;;;;;;;;;;;;;;;;;5012314;28;20470;-64
2020/12/19 01:12:38;;;;;;;;;;;;;;;;;;5010469;28;19925;-65
2020/12/19 01:15:05;;;;;;;;;;;;;;;;;;5013997;28;19961;-65
2020/12/19 01:17:31;;;;;;;;;;;;;;;;;;5004486;28;19937;-65
2020/12/19 01:19:58;;;;;;;;;;;;;;;;;;4999376;28;20293;-65
2020/12/19 01:22:25;;;;;;;;;;;;;;;;;;5000650;28;19926;-65
2020/12/19 01:24:51;;;;;;;;;;;;;;;;;;5004536;28;19925;-65
2020/12/19 01:27:18;;;;;;;;;;;;;;;;;;5006637;28;19972;-64
2020/12/19 01:29:44;;;;;;;;;;;;;;;;;;4993190;28;19926;-64
2020/12/19 01:32:11;;;;;;;;;;;;;;;;;;4994128;28;20305;-66
2020/12/19 01:34:37;;;;;;;;;;;;;;;;;;4997997;28;20030;-65
2020/12/19 01:37:04;;;;;;;;;;;;;;;;;;4993904;28;19926;-64
2020/12/19 01:39:30;;;;;;;;;;;;;;;;;;4998279;28;19930;-65
2020/12/19 01:41:57;;;;;;;;;;;;;;;;;;4997607;28;20108;-67
2020/12/19 01:44:23;;;;;;;;;;;;;;;;;;4999701;28;19972;-65
2020/12/19 01:46:50;;;;;;;;;;;;;;;;;;5006244;28;19933;-67
2020/12/19 01:49:16;;;;;;;;;;;;;;;;;;5003577;28;19971;-66
2020/12/19 01:51:43;;;;;;;;;;;;;;;;;;5006950;28;19925;-67
2020/12/19 01:54:09;;;;;;;;;;;;;;;;;;5008541;28;19932;-65
2020/12/19 01:56:36;;;;;;;;;;;;;;;;;;4992166;28;19926;-66
2020/12/19 01:59:02;;;;;;;;;;;;;;;;;;4997426;28;19926;-66
2020/12/19 02:01:29;;;;;;;;;;;;;;;;;;5005151;28;19929;-65
2020/12/19 02:03:55;;;;;;;;;;;;;;;;;;4996177;28;19926;-66
2020/12/19 02:06:21;;;;;;;;;;;;;;;;;;5010922;28;19929;-66
2020/12/19 02:08:49;;;;;;;;;;;;;;;;;;4997558;28;19948;-66
2020/12/19 02:11:15;;;;;;;;;;;;;;;;;;5011012;28;20293;-65
2020/12/19 02:13:42;;;;;;;;;;;;;;;;;;5001436;28;19932;-66
2020/12/19 02:16:08;;;;;;;;;;;;;;;;;;5005981;28;20008;-65
2020/12/19 02:18:35;;;;;;;;;;;;;;;;;;4994613;28;19932;-65
2020/12/19 02:21:01;;;;;;;;;;;;;;;;;;5007422;28;20356;-66
2020/12/19 02:23:28;;;;;;;;;;;;;;;;;;5006531;28;19979;-65
2020/12/19 02:25:54;;;;;;;;;;;;;;;;;;5001762;28;19925;-66
2020/12/19 02:28:21;;;;;;;;;;;;;;;;;;5000274;28;19925;-69
2020/12/19 02:30:47;;;;;;;;;;;;;;;;;;5010653;28;19925;-67
2020/12/19 02:33:14;;;;;;;;;;;;;;;;;;5003375;28;19926;-65
2020/12/19 02:35:40;;;;;;;;;;;;;;;;;;5000556;28;19930;-66
2020/12/19 02:38:07;;;;;;;;;;;;;;;;;;5006491;28;20024;-66
2020/12/19 02:40:33;;;;;;;;;;;;;;;;;;5013865;28;19925;-66
2020/12/19 02:43:00;;;;;;;;;;;;;;;;;;5001256;28;20126;-65
2020/12/19 02:45:26;;;;;;;;;;;;;;;;;;4995522;28;19926;-65
2020/12/19 02:47:53;;;;;;;;;;;;;;;;;;5001583;28;20334;-66
2020/12/19 02:50:19;;;;;;;;;;;;;;;;;;5014673;28;19933;-65
2020/12/19 02:52:46;;;;;;;;;;;;;;;;;;5007211;28;20021;-65
2020/12/19 02:55:12;;;;;;;;;;;;;;;;;;5008786;28;19930;-66
2020/12/19 02:57:38;;;;;;;;;;;;;;;;;;5001127;28;19925;-65
2020/12/19 03:00:05;;;;;;;;;;;;;;;;;;4999560;28;19932;-66
2020/12/19 03:02:31;;;;;;;;;;;;;;;;;;5012153;28;19932;-64
2020/12/19 03:04:58;;;;;;;;;;;;;;;;;;4997215;28;19930;-65
2020/12/19 03:07:24;;;;;;;;;;;;;;;;;;4997530;28;20353;-65
2020/12/19 03:09:51;;;;;;;;;;;;;;;;;;5014360;28;19956;-66
2020/12/19 03:12:17;;;;;;;;;;;;;;;;;;5014546;28;20389;-67
2020/12/19 03:14:44;;;;;;;;;;;;;;;;;;5013576;28;19926;-65
2020/12/19 03:17:10;;;;;;;;;;;;;;;;;;5010181;28;19925;-65
2020/12/19 03:19:37;;;;;;;;;;;;;;;;;;4996927;28;19933;-66
2020/12/19 03:22:03;;;;;;;;;;;;;;;;;;5014810;28;19925;-66
2020/12/19 03:24:30;;;;;;;;;;;;;;;;;;4999394;28;19930;-66
2020/12/19 03:26:56;;;;;;;;;;;;;;;;;;5014671;28;20040;-65
2020/12/19 03:29:23;;;;;;;;;;;;;;;;;;5008758;28;19926;-65
2020/12/19 03:31:49;;;;;;;;;;;;;;;;;;5002974;28;19925;-65
2020/12/19 03:34:16;;;;;;;;;;;;;;;;;;5014451;28;20428;-65
2020/12/19 03:36:42;;;;;;;;;;;;;;;;;;5012115;28;19925;-65
2020/12/19 03:39:09;;;;;;;;;;;;;;;;;;5010893;28;20420;-65
2020/12/19 03:41:35;;;;;;;;;;;;;;;;;;4998411;28;19926;-65
2020/12/19 03:44:02;;;;;;;;;;;;;;;;;;5008324;28;19926;-65
2020/12/19 03:46:28;;;;;;;;;;;;;;;;;;5009568;28;19926;-66
2020/12/19 03:48:55;;;;;;;;;;;;;;;;;;4995827;28;20460;-66
2020/12/19 03:51:21;;;;;;;;;;;;;;;;;;5008307;28;19972;-65
2020/12/19 03:53:48;;;;;;;;;;;;;;;;;;5016166;28;19926;-66
2020/12/19 03:56:14;;;;;;;;;;;;;;;;;;5000928;28;19932;-66
2020/12/19 03:58:41;;;;;;;;;;;;;;;;;;5000885;28;19932;-66
2020/12/19 04:01:08;;;;;;;;;;;;;;;;;;5005722;28;19972;-66
2020/12/19 04:03:34;;;;;;;;;;;;;;;;;;5014984;28;19932;-65
2020/12/19 04:06:01;;;;;;;;;;;;;;;;;;5005794;28;19925;-65
2020/12/19 04:08:27;;;;;;;;;;;;;;;;;;5001489;28;19999;-66
2020/12/19 04:10:54;;;;;;;;;;;;;;;;;;4997409;28;20356;-65
2020/12/19 04:13:20;;;;;;;;;;;;;;;;;;4998736;28;19936;-65
2020/12/19 04:15:47;;;;;;;;;;;;;;;;;;4995875;28;19925;-64
2020/12/19 04:18:13;;;;;;;;;;;;;;;;;;4998701;28;20017;-65
2020/12/19 04:20:40;;;;;;;;;;;;;;;;;;5008684;28;19930;-67
2020/12/19 04:23:06;;;;;;;;;;;;;;;;;;5015562;28;20019;-64
2020/12/19 04:25:33;;;;;;;;;;;;;;;;;;5007333;28;19925;-66
2020/12/19 04:27:59;;;;;;;;;;;;;;;;;;5005031;28;20275;-65
2020/12/19 04:30:26;;;;;;;;;;;;;;;;;;4997518;28;19948;-64
2020/12/19 04:32:52;;;;;;;;;;;;;;;;;;5010553;28;19925;-66
2020/12/19 04:35:19;;;;;;;;;;;;;;;;;;5002390;28;20398;-65
2020/12/19 04:37:45;;;;;;;;;;;;;;;;;;5004284;28;19926;-65
2020/12/19 04:40:12;;;;;;;;;;;;;;;;;;5009437;28;19929;-65
2020/12/19 04:42:38;;;;;;;;;;;;;;;;;;5012431;28;19941;-66
2020/12/19 04:45:05;;;;;;;;;;;;;;;;;;5015798;28;20435;-65
2020/12/19 04:47:31;;;;;;;;;;;;;;;;;;5013427;28;19971;-65
2020/12/19 04:49:58;;;;;;;;;;;;;;;;;;5007652;28;19926;-65
2020/12/19 04:52:24;;;;;;;;;;;;;;;;;;5013979;28;19932;-64
2020/12/19 04:54:53;;;;;;;;;;;;;;;;;;4998191;28;19926;-65
2020/12/19 04:57:20;;;;;;;;;;;;;;;;;;5009190;28;19929;-65
2020/12/19 04:59:46;;;;;;;;;;;;;;;;;;5002461;28;20039;-65
2020/12/19 05:02:14;;;;;;;;;;;;;;;;;;4997178;28;19926;-65
2020/12/19 05:04:41;;;;;;;;;;;;;;;;;;5004417;28;19932;-65
2020/12/19 05:07:08;;;;;;;;;;;;;;;;;;5009225;28;19926;-65
2020/12/19 05:09:34;;;;;;;;;;;;;;;;;;5001405;28;19926;-64
2020/12/19 05:12:01;;;;;;;;;;;;;;;;;;5008787;28;19932;-66
2020/12/19 05:14:27;;;;;;;;;;;;;;;;;;5000896;28;19932;-67
2020/12/19 05:16:54;;;;;;;;;;;;;;;;;;5011976;28;19926;-65
2020/12/19 05:19:20;;;;;;;;;;;;;;;;;;5007064;28;19929;-65
2020/12/19 05:21:47;;;;;;;;;;;;;;;;;;5011570;28;19956;-65
2020/12/19 05:24:13;;;;;;;;;;;;;;;;;;4999250;28;19947;-63
2020/12/19 05:26:40;;;;;;;;;;;;;;;;;;5011866;28;20279;-66
2020/12/19 05:29:06;;;;;;;;;;;;;;;;;;5004931;28;20020;-66
2020/12/19 05:31:33;;;;;;;;;;;;;;;;;;5001463;28;20398;-65
2020/12/19 05:33:59;;;;;;;;;;;;;;;;;;4998601;28;19926;-65
2020/12/19 05:36:28;;;;;;;;;;;;;;;;;;5009866;28;19932;-66
2020/12/19 05:38:54;;;;;;;;;;;;;;;;;;5012153;28;19991;-64
2020/12/19 05:41:21;;;;;;;;;;;;;;;;;;5011647;28;20443;-65
2020/12/19 05:43:47;;;;;;;;;;;;;;;;;;5011305;28;19979;-65
2020/12/19 05:46:14;;;;;;;;;;;;;;;;;;5010397;28;19991;-65
2020/12/19 05:48:40;;;;;;;;;;;;;;;;;;4998791;28;19930;-67
2020/12/19 05:51:07;;;;;;;;;;;;;;;;;;5010906;28;19925;-62
2020/12/19 05:53:33;;;;;;;;;;;;;;;;;;4997854;28;19934;-64
2020/12/19 05:56:00;;;;;;;;;;;;;;;;;;4999283;28;19933;-66
2020/12/19 05:58:26;;;;;;;;;;;;;;;;;;5002248;28;19969;-65
2020/12/19 06:00:53;;;;;;;;;;;;;;;;;;5010726;28;19925;-65
2020/12/19 06:03:19;;;;;;;;;;;;;;;;;;5010686;28;19979;-65
2020/12/19 06:05:46;;;;;;;;;;;;;;;;;;5001417;28;19971;-65
2020/12/19 06:08:12;;;;;;;;;;;;;;;;;;5014834;28;19965;-65
2020/12/19 06:10:39;;;;;;;;;;;;;;;;;;5011377;28;19926;-66
2020/12/19 06:13:05;;;;;;;;;;;;;;;;;;5014657;28;19926;-66
2020/12/19 06:15:32;;;;;;;;;;;;;;;;;;5013579;28;19932;-64
2020/12/19 06:17:58;;;;;;;;;;;;;;;;;;5006217;28;19931;-66
2020/12/19 06:20:25;;;;;;;;;;;;;;;;;;5010750;28;19932;-67
2020/12/19 06:22:51;;;;;;;;;;;;;;;;;;4998437;28;19979;-66
2020/12/19 06:25:17;;;;;;;;;;;;;;;;;;5002086;28;19925;-66
2020/12/19 06:27:44;;;;;;;;;;;;;;;;;;5011843;28;19926;-67
2020/12/19 06:30:10;;;;;;;;;;;;;;;;;;5005797;28;20289;-67
2020/12/19 06:32:37;;;;;;;;;;;;;;;;;;5000319;28;19933;-67
2020/12/19 06:35:06;;;;;;;;;;;;;;;;;;5005731;28;20020;-66
2020/12/19 06:37:32;;;;;;;;;;;;;;;;;;5009346;28;20012;-67
2020/12/19 06:39:59;;;;;;;;;;;;;;;;;;4995523;28;20301;-66
2020/12/19 06:42:25;;;;;;;;;;;;;;;;;;4995409;28;19926;-66
2020/12/19 06:44:52;;;;;;;;;;;;;;;;;;4994415;28;19926;-66
2020/12/19 06:47:18;;;;;;;;;;;;;;;;;;4999147;28;19925;-66
2020/12/19 06:49:45;;;;;;;;;;;;;;;;;;5013976;28;19956;-66
2020/12/19 06:52:11;;;;;;;;;;;;;;;;;;5013619;28;19930;-66
2020/12/19 06:54:38;;;;;;;;;;;;;;;;;;5014250;28;19926;-66
2020/12/19 06:57:04;;;;;;;;;;;;;;;;;;5018362;28;20278;-65
2020/12/19 06:59:31;;;;;;;;;;;;;;;;;;5012856;28;20092;-65
2020/12/19 07:01:57;;;;;;;;;;;;;;;;;;4995774;28;19926;-66
2020/12/19 07:04:24;;;;;;;;;;;;;;;;;;4994593;28;19932;-62
2020/12/19 07:06:50;;;;;;;;;;;;;;;;;;5001953;28;20102;-65
2020/12/19 07:09:17;;;;;;;;;;;;;;;;;;4995866;28;19926;-67
2020/12/19 07:11:43;;;;;;;;;;;;;;;;;;5001258;28;19925;-67
2020/12/19 07:14:10;;;;;;;;;;;;;;;;;;5012937;28;19934;-66
2020/12/19 07:16:36;;;;;;;;;;;;;;;;;;5005381;28;19925;-67
2020/12/19 07:19:03;;;;;;;;;;;;;;;;;;5004221;28;19926;-66
2020/12/19 07:21:29;;;;;;;;;;;;;;;;;;5000173;28;19936;-65
2020/12/19 07:23:56;;;;;;;;;;;;;;;;;;5004007;28;19926;-65
2020/12/19 07:26:22;;;;;;;;;;;;;;;;;;5000829;28;19925;-66
2020/12/19 07:28:49;;;;;;;;;;;;;;;;;;5010160;28;20089;-65
2020/12/19 07:31:15;;;;;;;;;;;;;;;;;;5013330;28;19935;-66
2020/12/19 07:33:42;;;;;;;;;;;;;;;;;;5000583;28;19932;-64
2020/12/19 07:36:08;;;;;;;;;;;;;;;;;;5007296;28;19925;-65
2020/12/19 07:38:35;;;;;;;;;;;;;;;;;;5003954;28;19926;-66
2020/12/19 07:41:03;;;;;;;;;;;;;;;;;;4993867;28;19932;-66
2020/12/19 07:43:30;;;;;;;;;;;;;;;;;;5001977;28;19929;-65
2020/12/19 07:45:56;;;;;;;;;;;;;;;;;;5001588;28;20301;-65
2020/12/19 07:48:23;;;;;;;;;;;;;;;;;;5009620;28;20349;-66
2020/12/19 07:50:49;;;;;;;;;;;;;;;;;;4995936;28;19987;-65
2020/12/19 07:53:16;;;;;;;;;;;;;;;;;;5007125;28;20378;-63
2020/12/19 07:55:42;;;;;;;;;;;;;;;;;;5009433;28;19933;-67
2020/12/19 07:58:09;;;;;;;;;;;;;;;;;;4996482;28;20412;-68
2020/12/19 08:00:35;;;;;;;;;;;;;;;;;;5007012;28;19926;-66
2020/12/19 08:03:02;;;;;;;;;;;;;;;;;;5011840;28;19959;-68
2020/12/19 08:05:28;;;;;;;;;;;;;;;;;;5012131;28;19936;-67
2020/12/19 08:07:55;;;;;;;;;;;;;;;;;;5011924;28;20335;-68
2020/12/19 08:10:21;;;;;;;;;;;;;;;;;;5000473;28;20353;-67
2020/12/19 08:12:48;;;;;;;;;;;;;;;;;;5007399;28;19925;-65
2020/12/19 08:15:14;;;;;;;;;;;;;;;;;;5012614;28;19925;-66
2020/12/19 08:17:41;;;;;;;;;;;;;;;;;;4995761;28;19932;-64
2020/12/19 08:20:07;;;;;;;;;;;;;;;;;;4999909;28;20401;-65
2020/12/19 08:22:34;;;;;;;;;;;;;;;;;;4997862;28;20136;-65
2020/12/19 08:25:00;;;;;;;;;;;;;;;;;;4996309;28;19991;-66
2020/12/19 08:27:26;;;;;;;;;;;;;;;;;;5007298;28;20012;-65
2020/12/19 08:29:53;;;;;;;;;;;;;;;;;;5004314;28;19921;-67
2020/12/19 08:32:19;;;;;;;;;;;;;;;;;;5010612;28;20427;-66
2020/12/19 08:34:46;;;;;;;;;;;;;;;;;;5010856;28;19932;-63
2020/12/19 08:37:12;;;;;;;;;;;;;;;;;;4999770;28;20013;-67
2020/12/19 08:39:39;;;;;;;;;;;;;;;;;;5005401;28;19925;-67
2020/12/19 08:42:05;;;;;;;;;;;;;;;;;;5007121;28;19926;-67
2020/12/19 08:44:32;;;;;;;;;;;;;;;;;;5009763;28;20283;-67
2020/12/19 08:46:58;;;;;;;;;;;;;;;;;;5011106;28;20220;-67
2020/12/19 08:49:25;;;;;;;;;;;;;;;;;;4993371;28;19968;-67
2020/12/19 08:51:51;;;;;;;;;;;;;;;;;;5004305;28;20047;-66
2020/12/19 08:54:18;;;;;;;;;;;;;;;;;;4993147;28;19925;-67
2020/12/19 08:56:44;;;;;;;;;;;;;;;;;;5001228;28;19933;-67
2020/12/19 08:59:11;;;;;;;;;;;;;;;;;;4997216;28;20378;-67
2020/12/19 09:01:39;;;;;;;;;;;;;;;;;;5010649;28;19941;-68
2020/12/19 09:04:05;;;;;;;;;;;;;;;;;;5002034;28;19933;-69
2020/12/19 09:06:32;;;;;;;;;;;;;;;;;;5009365;28;19931;-67
2020/12/19 09:08:58;;;;;;;;;;;;;;;;;;5009696;28;19926;-67
2020/12/19 09:11:25;;;;;;;;;;;;;;;;;;5011961;28;19925;-65
2020/12/19 09:13:51;;;;;;;;;;;;;;;;;;4999223;28;20555;-67
2020/12/19 09:16:18;;;;;;;;;;;;;;;;;;4998580;28;19925;-67
2020/12/19 09:18:45;;;;;;;;;;;;;;;;;;4995315;28;19926;-66
2020/12/19 09:21:12;;;;;;;;;;;;;;;;;;4999354;28;19932;-66
2020/12/19 09:23:39;;;;;;;;;;;;;;;;;;4995589;28;19926;-64
2020/12/19 09:26:05;;;;;;;;;;;;;;;;;;5010385;28;19925;-66
2020/12/19 09:28:32;;;;;;;;;;;;;;;;;;5011043;28;20309;-66
2020/12/19 09:30:58;;;;;;;;;;;;;;;;;;4993527;28;20013;-67
2020/12/19 09:33:25;;;;;;;;;;;;;;;;;;5003361;28;20005;-65
2020/12/19 09:35:51;;;;;;;;;;;;;;;;;;5001531;28;19930;-63
2020/12/19 09:38:17;;;;;;;;;;;;;;;;;;4998275;28;19947;-65
2020/12/19 09:40:44;;;;;;;;;;;;;;;;;;5003808;28;19944;-66
2020/12/19 09:43:10;;;;;;;;;;;;;;;;;;5008959;28;19933;-65
2020/12/19 09:45:37;;;;;;;;;;;;;;;;;;5015228;28;19929;-66
2020/12/19 09:48:03;;;;;;;;;;;;;;;;;;5001944;28;19929;-67
2020/12/19 09:50:30;;;;;;;;;;;;;;;;;;5013288;28;19933;-66
2020/12/19 09:52:56;;;;;;;;;;;;;;;;;;5015118;28;20397;-67
2020/12/19 09:55:23;;;;;;;;;;;;;;;;;;5001713;28;19939;-66
2020/12/19 10:48:38;;;;;;;;;;;;;;;;;;5133999;27;20698;-65
2020/12/19 10:51:05;;;;;;;;;;;;;;;;;;5125718;27;19933;-65
2020/12/19 10:53:31;;;;;;;;;;;;;;;;;;5119985;22;19925;-67
2020/12/19 10:55:58;;;;;;;;;;;;;;;;;;5087432;28;20015;-67
2020/12/19 10:58:24;;;;;;;;;;;;;;;;;;5090805;28;19969;-65
2020/12/19 11:00:51;;;;;;;;;;;;;;;;;;5088317;28;19984;-66
2020/12/19 11:03:17;;;;;;;;;;;;;;;;;;5083752;28;20301;-66
2020/12/19 11:05:44;;;;;;;;;;;;;;;;;;5075544;28;19928;-66
2020/12/19 11:08:10;;;;;;;;;;;;;;;;;;5073825;28;19924;-67
2020/12/19 11:10:37;;;;;;;;;;;;;;;;;;5083285;28;19929;-67
2020/12/19 11:13:03;;;;;;;;;;;;;;;;;;5074914;28;19964;-66
2020/12/19 11:15:30;;;;;;;;;;;;;;;;;;5068253;28;19924;-66
2020/12/19 11:17:58;;;;;;;;;;;;;;;;;;5070599;28;19925;-66
2020/12/19 11:20:24;;;;;;;;;;;;;;;;;;5083887;28;20353;-65
2020/12/19 11:22:51;;;;;;;;;;;;;;;;;;5076323;28;19924;-66
2020/12/19 11:25:17;;;;;;;;;;;;;;;;;;5080165;28;19928;-66
2020/12/19 11:27:44;;;;;;;;;;;;;;;;;;5073949;28;19973;-66
2020/12/19 11:30:10;;;;;;;;;;;;;;;;;;5075017;28;19928;-67
2020/12/19 11:32:39;;;;;;;;;;;;;;;;;;5075215;28;19970;-66
2020/12/19 11:35:05;;;;;;;;;;;;;;;;;;5075548;28;19953;-66
2020/12/19 11:37:32;;;;;;;;;;;;;;;;;;5077191;28;20378;-66
2020/12/19 11:39:58;;;;;;;;;;;;;;;;;;5075719;28;20225;-67
2020/12/19 11:42:25;;;;;;;;;;;;;;;;;;5074125;28;20027;-65
2020/12/19 11:44:51;;;;;;;;;;;;;;;;;;5072954;28;20493;-65
2020/12/19 11:47:18;;;;;;;;;;;;;;;;;;5076139;28;19986;-64
2020/12/19 11:49:44;;;;;;;;;;;;;;;;;;5058872;28;20015;-64
2020/12/19 11:52:11;;;;;;;;;;;;;;;;;;5058412;28;19925;-65
2020/12/19 11:54:38;;;;;;;;;;;;;;;;;;5060065;28;19925;-67
2020/12/19 11:57:04;;;;;;;;;;;;;;;;;;5061239;28;21804;-67
2020/12/19 11:59:31;;;;;;;;;;;;;;;;;;5058523;28;19931;-67
2020/12/19 12:01:57;;;;;;;;;;;;;;;;;;5060461;28;19924;-67
2020/12/19 12:04:24;;;;;;;;;;;;;;;;;;5061581;28;19934;-68
2020/12/19 12:06:50;;;;;;;;;;;;;;;;;;5057093;28;20338;-65
2020/12/19 12:09:17;;;;;;;;;;;;;;;;;;5064863;28;19937;-68
2020/12/19 12:11:43;;;;;;;;;;;;;;;;;;5063169;28;20412;-66
2020/12/19 12:14:10;;;;;;;;;;;;;;;;;;5059645;28;20011;-65
2020/12/19 12:16:36;;;;;;;;;;;;;;;;;;5062887;28;19981;-64
2020/12/19 12:19:03;;;;;;;;;;;;;;;;;;5061762;28;19925;-66
2020/12/19 12:21:29;;;;;;;;;;;;;;;;;;5062423;28;19924;-67
2020/12/19 12:23:56;;;;;;;;;;;;;;;;;;5056415;28;19931;-66
2020/12/19 12:26:22;;;;;;;;;;;;;;;;;;5062303;28;19944;-66
2020/12/19 12:28:49;;;;;;;;;;;;;;;;;;5059658;28;19932;-69
2020/12/19 12:31:15;;;;;;;;;;;;;;;;;;5060830;28;20028;-68
2020/12/19 12:33:42;;;;;;;;;;;;;;;;;;5061631;28;19929;-66
2020/12/19 12:36:08;;;;;;;;;;;;;;;;;;5060282;28;19929;-66
2020/12/19 12:38:35;;;;;;;;;;;;;;;;;;5060284;28;19939;-66
2020/12/19 12:41:01;;;;;;;;;;;;;;;;;;5059837;28;19935;-65
2020/12/19 12:43:27;;;;;;;;;;;;;;;;;;5059592;28;19928;-66
2020/12/19 12:45:54;;;;;;;;;;;;;;;;;;5059684;28;20302;-67
2020/12/19 12:48:20;;;;;;;;;;;;;;;;;;5060498;28;19999;-68
2020/12/19 12:50:47;;;;;;;;;;;;;;;;;;5058070;28;19924;-66
2020/12/19 12:53:13;;;;;;;;;;;;;;;;;;5057390;28;19924;-66
2020/12/19 12:55:40;;;;;;;;;;;;;;;;;;5060123;28;20029;-67
2020/12/19 12:58:06;;;;;;;;;;;;;;;;;;5059042;28;19976;-66
2020/12/19 13:00:33;;;;;;;;;;;;;;;;;;5058350;28;20007;-72
2020/12/19 13:03:00;;;;;;;;;;;;;;;;;;5061069;28;20309;-66
2020/12/19 13:05:26;;;;;;;;;;;;;;;;;;5060767;28;20457;-67
2020/12/19 13:07:53;;;;;;;;;;;;;;;;;;5060058;28;20638;-66
2020/12/19 13:10:19;;;;;;;;;;;;;;;;;;5067592;28;19928;-67
2020/12/19 13:12:46;;;;;;;;;;;;;;;;;;5063119;28;19928;-66
2020/12/19 13:15:13;;;;;;;;;;;;;;;;;;5065444;28;20360;-65
2020/12/19 13:17:40;;;;;;;;;;;;;;;;;;5066488;28;19978;-65
2020/12/19 13:20:06;;;;;;;;;;;;;;;;;;5066435;28;20398;-62
2020/12/19 13:22:33;;;;;;;;;;;;;;;;;;5067524;28;19931;-65
2020/12/19 13:25:02;;;;;;;;;;;;;;;;;;5070588;28;19924;-65
2020/12/19 13:27:28;;;;;;;;;;;;;;;;;;5068198;28;20382;-64
2020/12/19 13:29:55;;;;;;;;;;;;;;;;;;5064041;28;19975;-65
2020/12/19 13:32:24;;;;;;;;;;;;;;;;;;5065343;28;19932;-64
2020/12/19 13:34:51;;;;;;;;;;;;;;;;;;5064768;28;20301;-63
2020/12/19 13:37:20;;;;;;;;;;;;;;;;;;5064563;28;19924;-65
2020/12/19 13:39:49;;;;;;;;;;;;;;;;;;5063040;28;19994;-65
2020/12/19 13:42:16;;;;;;;;;;;;;;;;;;5064232;28;19924;-63
2020/12/19 13:44:42;;;;;;;;;;;;;;;;;;5062901;28;19970;-66
2020/12/19 13:47:09;;;;;;;;;;;;;;;;;;5067482;28;19989;-66
2020/12/19 13:49:35;;;;;;;;;;;;;;;;;;5073672;28;20378;-66
2020/12/19 13:52:02;;;;;;;;;;;;;;;;;;5069303;28;19967;-65
2020/12/19 13:54:28;;;;;;;;;;;;;;;;;;5061649;28;20340;-66
2020/12/19 13:56:55;;;;;;;;;;;;;;;;;;5060239;28;20192;-64
2020/12/19 13:59:21;;;;;;;;;;;;;;;;;;5071624;28;19934;-63
2020/12/19 14:01:48;;;;;;;;;;;;;;;;;;5070356;28;19982;-63
2020/12/19 14:04:14;;;;;;;;;;;;;;;;;;5061319;28;20357;-64
2020/12/19 14:06:41;;;;;;;;;;;;;;;;;;5067691;28;19971;-65
2020/12/19 14:09:07;;;;;;;;;;;;;;;;;;5070624;28;19947;-64
2020/12/19 14:11:35;;;;;;;;;;;;;;;;;;5070933;28;19925;-62
2020/12/19 14:14:02;;;;;;;;;;;;;;;;;;5061899;28;20424;-63
2020/12/19 14:16:28;;;;;;;;;;;;;;;;;;5062767;28;19931;-63
2020/12/19 14:18:55;;;;;;;;;;;;;;;;;;5061828;28;19925;-64
2020/12/19 14:21:21;;;;;;;;;;;;;;;;;;5063629;28;19928;-67
2020/12/19 14:23:48;;;;;;;;;;;;;;;;;;5074308;28;19967;-65
2020/12/19 14:26:14;;;;;;;;;;;;;;;;;;5063346;28;19974;-64
2020/12/19 14:28:41;;;;;;;;;;;;;;;;;;5065093;28;20314;-64
2020/12/19 14:31:08;;;;;;;;;;;;;;;;;;5064807;28;19931;-63
2020/12/19 14:33:34;;;;;;;;;;;;;;;;;;5064583;28;19929;-65
2020/12/19 14:36:01;;;;;;;;;;;;;;;;;;5066108;28;19931;-63
2020/12/19 14:38:27;;;;;;;;;;;;;;;;;;5064972;28;19978;-65
2020/12/19 14:40:54;;;;;;;;;;;;;;;;;;5060543;28;19947;-64
2020/12/19 14:43:20;;;;;;;;;;;;;;;;;;5058465;28;19924;-64
2020/12/19 14:45:47;;;;;;;;;;;;;;;;;;5062098;28;19946;-65
2020/12/19 14:48:13;;;;;;;;;;;;;;;;;;5060374;28;19939;-65
2020/12/19 14:50:40;;;;;;;;;;;;;;;;;;5063279;28;19925;-61
2020/12/19 14:53:06;;;;;;;;;;;;;;;;;;5060937;28;20267;-63
2020/12/19 14:55:33;;;;;;;;;;;;;;;;;;5055670;28;19925;-64
2020/12/19 14:58:00;;;;;;;;;;;;;;;;;;5070044;28;19931;-64
2020/12/19 15:00:26;;;;;;;;;;;;;;;;;;5059540;28;19924;-63
2020/12/19 15:02:53;;;;;;;;;;;;;;;;;;5063038;28;20015;-65
2020/12/19 15:05:19;;;;;;;;;;;;;;;;;;5061040;28;19925;-64
2020/12/19 15:07:46;;;;;;;;;;;;;;;;;;5064005;28;19940;-62
2020/12/19 15:10:15;;;;;;;;;;;;;;;;;;5059374;28;20019;-60
2020/12/19 15:12:41;;;;;;;;;;;;;;;;;;5063425;28;19925;-65
2020/12/19 15:15:08;;;;;;;;;;;;;;;;;;5057581;28;19925;-64
2020/12/19 15:17:34;;;;;;;;;;;;;;;;;;5066163;28;19976;-64
2020/12/19 15:20:01;;;;;;;;;;;;;;;;;;5056206;28;20527;-64
2020/12/19 15:22:27;;;;;;;;;;;;;;;;;;5060774;28;20011;-64
2020/12/19 15:24:54;;;;;;;;;;;;;;;;;;5064263;28;19924;-64
2020/12/19 15:27:20;;;;;;;;;;;;;;;;;;5073429;28;20007;-65
2020/12/19 15:29:49;;;;;;;;;;;;;;;;;;5069144;28;19975;-64
2020/12/19 15:32:16;;;;;;;;;;;;;;;;;;5055415;28;19929;-64
2020/12/19 15:34:42;;;;;;;;;;;;;;;;;;5056979;28;19970;-64
2020/12/19 15:37:09;;;;;;;;;;;;;;;;;;5066753;28;19929;-65
2020/12/19 15:39:35;;;;;;;;;;;;;;;;;;5070075;28;20424;-63
2020/12/19 15:42:02;;;;;;;;;;;;;;;;;;5067837;28;19935;-65
2020/12/19 15:44:28;;;;;;;;;;;;;;;;;;5070750;28;20015;-64
2020/12/19 15:46:55;;;;;;;;;;;;;;;;;;5074140;28;19925;-64
2020/12/19 15:49:21;;;;;;;;;;;;;;;;;;5084670;28;19935;-65
2020/12/19 15:51:49;;;;;;;;;;;;;;;;;;5072451;28;19974;-65
2020/12/19 15:54:16;;;;;;;;;;;;;;;;;;5074370;28;19924;-66
2020/12/19 15:56:42;;;;;;;;;;;;;;;;;;5072975;28;19971;-65
2020/12/19 15:59:09;;;;;;;;;;;;;;;;;;5067103;28;20340;-64
2020/12/19 16:01:35;;;;;;;;;;;;;;;;;;5072206;28;19925;-64
2020/12/19 16:04:02;;;;;;;;;;;;;;;;;;5067894;28;20093;-62
2020/12/19 16:06:28;;;;;;;;;;;;;;;;;;5068705;28;20018;-66
2020/12/19 16:08:55;;;;;;;;;;;;;;;;;;5061290;28;20394;-62
2020/12/19 16:11:21;;;;;;;;;;;;;;;;;;5058929;28;20303;-62
2020/12/19 16:13:48;;;;;;;;;;;;;;;;;;5062289;28;20070;-63
2020/12/19 16:16:14;;;;;;;;;;;;;;;;;;5054914;28;20390;-67
2020/12/19 16:18:41;;;;;;;;;;;;;;;;;;5058183;28;20082;-66
2020/12/19 16:21:07;;;;;;;;;;;;;;;;;;5059805;28;19967;-65
2020/12/19 16:23:34;;;;;;;;;;;;;;;;;;5059458;28;20302;-66
2020/12/19 16:26:00;;;;;;;;;;;;;;;;;;5056211;28;20024;-65
2020/12/19 16:28:27;;;;;;;;;;;;;;;;;;5057646;28;19990;-66
2020/12/19 16:30:53;;;;;;;;;;;;;;;;;;5055403;28;20049;-66
2020/12/19 16:33:19;;;;;;;;;;;;;;;;;;5058292;28;19924;-65
2020/12/19 16:35:47;;;;;;;;;;;;;;;;;;5059733;28;20007;-65
2020/12/19 16:38:13;;;;;;;;;;;;;;;;;;5055457;28;19932;-68
2020/12/19 16:40:40;;;;;;;;;;;;;;;;;;5058449;28;19970;-65
2020/12/19 16:43:06;;;;;;;;;;;;;;;;;;5056229;28;19925;-66
2020/12/19 16:45:33;;;;;;;;;;;;;;;;;;5054764;28;19928;-67
2020/12/19 16:47:59;;;;;;;;;;;;;;;;;;5057603;28;19924;-68
2020/12/19 16:50:25;;;;;;;;;;;;;;;;;;5059096;28;19924;-66
2020/12/19 16:52:53;;;;;;;;;;;;;;;;;;5057383;28;20471;-66
2020/12/19 16:55:19;;;;;;;;;;;;;;;;;;5063960;28;19928;-63
2020/12/19 16:57:46;;;;;;;;;;;;;;;;;;5056403;28;19924;-63
2020/12/19 17:00:13;;;;;;;;;;;;;;;;;;5062978;28;19925;-67
2020/12/19 17:02:39;;;;;;;;;;;;;;;;;;5061227;28;19933;-66
2020/12/19 17:05:05;;;;;;;;;;;;;;;;;;5055789;28;19950;-67
2020/12/19 17:07:32;;;;;;;;;;;;;;;;;;5056505;28;20011;-67
2020/12/19 17:09:58;;;;;;;;;;;;;;;;;;5057095;28;20019;-66
2020/12/19 17:12:25;;;;;;;;;;;;;;;;;;5058654;28;20301;-64
2020/12/19 17:14:51;;;;;;;;;;;;;;;;;;5056580;28;19936;-67
2020/12/19 17:17:18;;;;;;;;;;;;;;;;;;5060031;28;19928;-65
2020/12/19 17:19:44;;;;;;;;;;;;;;;;;;5057542;28;19931;-66
2020/12/19 17:22:11;;;;;;;;;;;;;;;;;;5066856;28;20079;-65
2020/12/19 17:24:37;;;;;;;;;;;;;;;;;;5055885;28;19951;-66
2020/12/19 17:27:04;;;;;;;;;;;;;;;;;;5052519;28;19931;-66
2020/12/19 17:29:30;;;;;;;;;;;;;;;;;;5068429;28;19932;-65
2020/12/19 17:31:57;;;;;;;;;;;;;;;;;;5065139;28;19924;-64